Spokane International Airport
KGEG : now visible

Airfield :











YOU CAN JOIN US ON...

 
LOGIN :

Register | Disclaimer

   EN    FR    IT 

 









Legend :    VFR   Marginal VFR   IFR   Intensive IFR   Very Intensive IFR
Visi :
Ceiling :
>= 8 km
>= 3000ft
5 to 8 km
1000 to 3000 ft
1500m to 5 km
500 to 1000 ft
800 to 1500m
200 to 500 ft
< 800m
< 200 ft
Symbols :   Thunderstorms  Fog  Heavy snow  Heavy precipitations  Wind > 20 kt






- Airport Elevation : 2376 ft
- IATA code : GEG


KGEG - Spokane International

CURRENT METAR :
  • 190853Z 06004KT 6SM BR BCFG FEW002 M03/M04 A3053 RMK AO2 SLP364 VIS E-SE 2 I1001 I3001 T10331044 51004

EXPIRED METARs :
  • 190753Z 02004KT 8SM CLR M02/M04 A3053 RMK AO2 SLP363 I1000 T10221039 400281028
  • 190653Z 02005KT 8SM CLR M02/M03 A3052 RMK AO2 SLP362 T10221033
  • 190553Z 07007KT 9SM CLR M02/M03 A3052 RMK AO2 SLP360 T10171033 10017 21022 51013

TAF KGEG
Valid from the 19 at 06:00 until the 20 at 06:00 UTC


190539Z 1906/2006 04004KT P6SM SKC
FM191500 VRB03KT 4SM BCFG SCT001 BKN200
FM191700 18005KT P6SM BKN200
FM200400 18006KT P6SM SCT250
KZSE FIR / North America



MET'MAP, your aeronautical weather chart ! - Copyright ORBIFLY December 2007 - Disclaimer

ORBIFLY MET'MAP TEAM :

Programming & Development : Alexandra Zaïnal
Concept & original design : Baudouin d'Aumeries
Assistance for programming : Marc-Olivier Méhu
Technical & hardware support : Manuel Goepfert

Contact : metmap@orbifly.com




SOURCES & CREDITS :

   NOAA       Earth
Advisory